Time;durP1;ratioP1;P1;durP2;ratioP2;P2;SDS_P1;SDS_P2;PMS_P1;PMS_P2;Temp;Humidity;BMP_temperature;BMP_pressure;BME280_temperature;BME280_humidity;BME280_pressure;Samples;Min_cycle;Max_cycle;Signal;HPM_P1;HPM_P2
2022/04/01 00:02:23;;;;;;;;;0.00;0.00;;;;;2.72;60.31;99715.63;5039205;28;45549;-80
2022/04/01 00:04:48;;;;;;;;;0.00;0.00;;;;;2.73;60.59;99727.81;5056725;28;45537;-79
2022/04/01 00:07:14;;;;;;;;;0.00;0.00;;;;;2.74;60.44;99711.28;5055468;28;45510;-79
2022/04/01 00:09:39;;;;;;;;;0.00;0.00;;;;;2.73;60.27;99712.16;5064094;28;46300;-78
2022/04/01 00:12:06;;;;;;;;;1.00;1.00;;;;;2.76;59.87;99712.13;5037856;28;45560;-79
2022/04/01 00:14:32;;;;;;;;;5.25;0.00;;;;;2.76;60.19;99712.13;5055627;28;45537;-79
2022/04/01 00:16:58;;;;;;;;;0.50;0.00;;;;;2.76;60.59;99710.38;5056043;28;45479;-79
2022/04/01 00:19:24;;;;;;;;;1.75;0.00;;;;;2.72;60.40;99690.41;5055071;28;46801;-80
2022/04/01 00:21:50;;;;;;;;;3.00;1.00;;;;;2.64;60.88;99677.38;5055081;28;45428;-78
2022/04/01 00:24:15;;;;;;;;;0.00;0.00;;;;;2.77;60.15;99698.22;5059884;28;45280;-79
2022/04/01 00:26:41;;;;;;;;;0.25;0.00;;;;;2.78;60.24;99702.56;5059288;28;45273;-80
2022/04/01 00:29:15;;;;;;;;;0.75;0.00;;;;;2.72;61.10;99703.47;5057781;28;45399;-79
2022/04/01 00:31:59;;;;;;;;;0.00;0.00;;;;;2.72;60.10;99700.84;5056655;28;45462;-79
2022/04/01 00:34:26;;;;;;;;;0.75;0.00;;;;;2.67;60.69;99706.06;5058069;28;45470;-79
2022/04/01 00:36:51;;;;;;;;;1.00;0.00;;;;;2.61;61.13;99700.88;5059952;28;45520;-80
2022/04/01 00:39:18;;;;;;;;;0.00;0.00;;;;;2.64;60.93;99702.59;5058987;28;45320;-80
2022/04/01 00:41:45;;;;;;;;;0.00;0.00;;;;;2.63;61.07;99696.50;5055947;28;45506;-79
2022/04/01 00:44:18;;;;;;;;;3.00;0.00;;;;;2.64;61.65;99695.66;5056975;28;45450;-80
2022/04/01 00:46:46;;;;;;;;;2.50;0.00;;;;;2.68;61.32;99688.66;5055700;28;45575;-79
2022/04/01 00:49:11;;;;;;;;;1.00;0.00;;;;;2.69;60.83;99679.09;5056437;28;46315;-80
2022/04/01 00:51:40;;;;;;;;;2.50;0.75;;;;;2.69;61.16;99673.88;5066515;28;45379;-79
2022/04/01 00:54:05;;;;;;;;;0.00;0.00;;;;;2.66;61.51;99678.22;5041357;28;45353;-80
2022/04/01 00:56:33;;;;;;;;;0.00;0.00;;;;;2.65;61.56;99679.09;5062631;28;45401;-80
2022/04/01 00:58:59;;;;;;;;;0.25;0.00;;;;;2.62;61.01;99658.22;5061411;28;45356;-79
2022/04/01 01:01:25;;;;;;;;;0.00;0.00;;;;;2.65;61.15;99673.03;5038925;28;45484;-80
2022/04/01 01:03:50;;;;;;;;;1.00;1.00;;;;;2.62;60.54;99660.84;5057020;28;45427;-75
2022/04/01 01:06:18;;;;;;;;;1.00;1.00;;;;;2.64;60.82;99661.72;5054505;28;45546;-74
2022/04/01 01:08:44;;;;;;;;;0.00;0.00;;;;;2.65;61.01;99653.00;5054504;28;46480;-75
2022/04/01 01:11:09;;;;;;;;;0.00;0.00;;;;;2.65;61.14;99653.00;5044218;28;45659;-74
2022/04/01 01:13:35;;;;;;;;;0.00;0.00;;;;;2.66;61.24;99644.31;5054725;28;45633;-74
2022/04/01 01:16:02;;;;;;;;;0.00;0.00;;;;;2.68;61.03;99649.53;5055842;28;45444;-74
2022/04/01 01:18:27;;;;;;;;;0.00;0.00;;;;;2.63;61.64;99631.28;5056977;28;46028;-75
2022/04/01 01:20:53;;;;;;;;;0.00;0.00;;;;;2.64;61.16;99639.97;5054991;28;45375;-74
2022/04/01 01:23:19;;;;;;;;;0.00;0.00;;;;;2.67;61.98;99633.00;5055239;28;45363;-74
2022/04/01 01:25:46;;;;;;;;;0.75;0.00;;;;;2.64;61.84;99626.91;5055160;28;45504;-75
2022/04/01 01:28:12;;;;;;;;;0.00;0.00;;;;;2.66;62.26;99623.44;5055532;28;45463;-75
2022/04/01 01:30:37;;;;;;;;;0.50;0.00;;;;;2.67;62.93;99625.19;5054824;28;46024;-74
2022/04/01 01:33:04;;;;;;;;;1.00;0.00;;;;;2.67;63.01;99638.22;5054329;28;45539;-74
2022/04/01 01:35:29;;;;;;;;;1.00;0.00;;;;;2.66;63.83;99633.88;5054655;28;45541;-74
2022/04/01 01:37:55;;;;;;;;;0.00;0.00;;;;;2.62;63.22;99621.69;5054350;28;46982;-74
2022/04/01 01:40:20;;;;;;;;;1.75;1.75;;;;;2.67;63.50;99619.97;5054393;28;45492;-80
2022/04/01 01:42:46;;;;;;;;;0.00;0.00;;;;;2.67;64.05;99616.47;5055569;28;45653;-79
2022/04/01 01:45:11;;;;;;;;;0.50;0.50;;;;;2.69;63.37;99608.63;5058747;28;45364;-79
2022/04/01 01:47:37;;;;;;;;;0.00;0.00;;;;;2.63;64.57;99607.78;5055424;28;45963;-78
2022/04/01 01:55:32;;;;;;;;;0.00;0.00;;;;;2.62;66.09;99593.00;5070711;28;45374;-79
2022/04/01 01:57:58;;;;;;;;;0.00;0.00;;;;;2.63;66.13;99599.09;5056641;28;46625;-81
2022/04/01 02:00:25;;;;;;;;;1.50;0.00;;;;;2.59;66.74;99590.41;5057592;28;45338;-80
2022/04/01 02:02:50;;;;;;;;;0.00;0.00;;;;;2.59;66.59;99589.53;5036369;28;45667;-79
2022/04/01 02:05:16;;;;;;;;;0.00;0.00;;;;;2.51;67.47;99565.22;5055174;28;45379;-79
2022/04/01 02:07:53;;;;;;;;;0.50;0.50;;;;;2.57;66.44;99584.31;5054157;28;45607;-78
2022/04/01 02:10:18;;;;;;;;;0.00;0.00;;;;;2.47;67.25;99566.97;5072641;28;45423;-80
2022/04/01 02:12:44;;;;;;;;;0.00;0.00;;;;;2.45;66.98;99561.75;5034673;28;45377;-79
2022/04/01 02:15:11;;;;;;;;;0.00;0.00;;;;;2.51;66.98;99580.88;5036702;28;45507;-79
2022/04/01 02:17:37;;;;;;;;;0.25;0.00;;;;;2.46;67.85;99573.94;5035512;28;46409;-79
2022/04/01 02:20:10;;;;;;;;;0.00;0.00;;;;;2.51;67.87;99568.69;5049243;28;45516;-79
2022/04/01 02:22:37;;;;;;;;;0.00;0.00;;;;;2.49;68.02;99570.44;5034131;28;45384;-79
2022/04/01 02:25:04;;;;;;;;;1.00;0.00;;;;;2.46;68.96;99570.44;5056506;28;45397;-79
2022/04/01 02:27:30;;;;;;;;;0.00;0.00;;;;;2.50;69.24;99566.94;5061334;28;46190;-80
2022/04/01 02:29:57;;;;;;;;;0.00;0.00;;;;;2.45;69.80;99560.88;5071617;27;45412;-79
2022/04/01 02:32:23;;;;;;;;;0.50;0.00;;;;;2.43;70.62;99570.44;5061217;28;45331;-80
2022/04/01 02:34:49;;;;;;;;;0.00;0.00;;;;;2.41;70.72;99562.63;5059393;28;45402;-79
2022/04/01 02:37:15;;;;;;;;;3.50;0.75;;;;;2.39;71.04;99556.53;5040770;28;45443;-80
2022/04/01 02:39:41;;;;;;;;;0.00;0.00;;;;;2.39;71.35;99555.69;5057517;28;45371;-80
2022/04/01 02:42:06;;;;;;;;;0.00;0.00;;;;;2.41;71.78;99569.59;5039867;28;45484;-81
2022/04/01 02:44:33;;;;;;;;;0.00;0.00;;;;;2.37;70.92;99553.09;5040326;28;45573;-80
2022/04/01 02:46:59;;;;;;;;;2.00;0.00;;;;;2.36;70.64;99550.47;5040207;28;45946;-79
2022/04/01 02:49:25;;;;;;;;;0.25;0.00;;;;;2.31;71.75;99543.53;5069018;28;45368;-81
2022/04/01 02:51:53;;;;;;;;;0.25;0.00;;;;;2.28;71.68;99547.91;5059371;28;45787;-80
2022/04/01 02:54:20;;;;;;;;;0.00;0.00;;;;;2.34;72.79;99552.22;5058253;28;45463;-79
2022/04/01 02:56:47;;;;;;;;;0.00;0.00;;;;;2.34;73.27;99547.00;5058135;28;46089;-80
2022/04/01 02:59:13;;;;;;;;;0.00;0.00;;;;;2.29;73.03;99532.25;5058940;28;45650;-79
2022/04/01 03:01:40;;;;;;;;;6.25;3.00;;;;;2.29;73.07;99540.06;5063446;28;45356;-80
2022/04/01 03:04:09;;;;;;;;;2.50;0.00;;;;;2.28;73.44;99537.47;5060911;28;45605;-80
2022/04/01 03:06:38;;;;;;;;;0.00;0.00;;;;;2.25;74.00;99533.13;5057282;28;46269;-79
2022/04/01 03:09:07;;;;;;;;;0.00;0.00;;;;;2.25;74.58;99543.56;5043047;28;45382;-80
2022/04/01 03:11:33;;;;;;;;;1.00;1.00;;;;;2.19;74.78;99535.75;5074266;27;45453;-80
2022/04/01 03:13:58;;;;;;;;;0.00;0.00;;;;;2.14;74.64;99534.88;5058140;28;45469;-82
2022/04/01 03:16:24;;;;;;;;;0.00;0.00;;;;;2.10;75.25;99522.72;5057284;28;46078;-78
2022/04/01 03:18:50;;;;;;;;;2.25;0.00;;;;;2.05;74.65;99517.53;5068051;27;45540;-79
2022/04/01 03:21:15;;;;;;;;;0.00;0.00;;;;;2.03;75.35;99527.06;5061021;28;45449;-80
2022/04/01 03:23:44;;;;;;;;;0.00;0.00;;;;;2.04;75.33;99507.09;5056826;28;45439;-80
2022/04/01 03:26:11;;;;;;;;;0.00;0.00;;;;;1.96;75.09;99514.94;5062362;28;45308;-79
2022/04/01 03:28:36;;;;;;;;;0.00;0.00;;;;;1.99;75.72;99514.03;5063535;28;45604;-79
2022/04/01 03:31:06;;;;;;;;;2.00;0.00;;;;;1.95;75.78;99514.06;5064323;28;45765;-80
2022/04/01 03:33:36;;;;;;;;;0.75;0.75;;;;;1.97;75.89;99505.38;5061392;28;45641;-74
2022/04/01 03:36:02;;;;;;;;;0.00;0.00;;;;;1.94;76.61;99512.34;5056677;28;46269;-75
2022/04/01 03:38:28;;;;;;;;;0.00;0.00;;;;;1.90;77.05;99510.59;5059513;28;45477;-75
2022/04/01 03:40:54;;;;;;;;;0.00;0.00;;;;;1.93;76.50;99514.94;5056007;28;45391;-74
2022/04/01 03:43:20;;;;;;;;;1.00;0.00;;;;;1.93;76.99;99515.81;5056517;28;45359;-73
2022/04/01 03:45:48;;;;;;;;;1.00;0.00;;;;;1.94;77.27;99506.25;5056259;28;47223;-75
2022/04/01 03:48:42;;;;;;;;;1.00;0.00;;;;;1.88;77.06;99501.94;5055675;28;45480;-75
2022/04/01 03:51:08;;;;;;;;;0.00;0.00;;;;;1.82;76.79;99495.84;5056250;28;45459;-74
2022/04/01 03:53:37;;;;;;;;;0.00;0.00;;;;;1.90;77.03;99505.38;5056323;28;45448;-74
2022/04/01 03:56:06;;;;;;;;;0.00;0.00;;;;;1.89;77.15;99502.78;5040827;28;46275;-75
2022/04/01 03:58:34;;;;;;;;;0.00;0.00;;;;;1.88;77.52;99514.06;5056106;28;45434;-75
2022/04/01 04:01:03;;;;;;;;;1.00;0.00;;;;;1.87;76.93;99505.41;5065044;28;45314;-73
2022/04/01 04:03:29;;;;;;;;;4.00;0.00;;;;;1.81;77.42;99504.50;5076597;28;45473;-75
2022/04/01 04:05:57;;;;;;;;;0.00;0.00;;;;;1.90;77.28;99510.59;5075902;27;45994;-75
2022/04/01 04:08:23;;;;;;;;;0.00;0.00;;;;;1.90;77.09;99494.09;5070674;27;45443;-74
2022/04/01 04:10:53;;;;;;;;;0.00;0.00;;;;;1.90;76.76;99505.38;5054810;28;45395;-75
2022/04/01 04:13:21;;;;;;;;;0.00;0.00;;;;;1.92;76.83;99494.97;5055370;28;45372;-75
2022/04/01 04:16:13;;;;;;;;;0.00;0.00;;;;;1.91;76.52;99509.75;5037697;28;47032;-75
2022/04/01 04:18:51;;;;;;;;;0.00;0.00;;;;;1.93;76.33;99500.16;5055672;28;45379;-74
2022/04/01 04:21:25;;;;;;;;;0.00;0.00;;;;;1.95;76.44;99511.44;5056136;28;45340;-74
2022/04/01 04:24:03;;;;;;;;;0.50;0.00;;;;;1.97;76.38;99511.44;5056578;28;45285;-75
2022/04/01 04:26:46;;;;;;;;;0.00;0.00;;;;;1.96;75.55;99491.50;5055831;28;45339;-80
2022/04/01 04:29:14;;;;;;;;;0.00;0.00;;;;;1.97;75.95;99506.22;5064177;28;45247;-79
2022/04/01 04:32:08;;;;;;;;;0.00;0.00;;;;;2.00;76.16;99510.59;5065679;28;45387;-80
2022/04/01 04:34:38;;;;;;;;;0.00;0.00;;;;;1.99;75.45;99508.84;5058799;28;45557;-79
2022/04/01 04:37:11;;;;;;;;;1.00;0.00;;;;;1.97;75.37;99506.22;5037714;28;46123;-81
2022/04/01 04:39:40;;;;;;;;;0.00;0.00;;;;;2.03;75.90;99515.78;5055606;28;45401;-80
2022/04/01 04:42:07;;;;;;;;;0.00;0.00;;;;;2.04;75.42;99517.53;5055766;28;45498;-74
2022/04/01 04:44:33;;;;;;;;;0.00;0.00;;;;;2.05;75.46;99498.41;5055161;28;45441;-75
2022/04/01 04:47:00;;;;;;;;;0.00;0.00;;;;;2.08;75.35;99514.91;5046004;28;46278;-74
2022/04/01 04:49:30;;;;;;;;;0.00;0.00;;;;;1.99;74.73;99496.69;5076904;28;45517;-76
2022/04/01 04:51:57;;;;;;;;;0.00;0.00;;;;;2.12;74.87;99523.59;5045591;28;45490;-76
2022/04/01 04:54:25;;;;;;;;;0.00;0.00;;;;;2.10;74.87;99522.72;5054457;28;45603;-76
2022/04/01 04:56:52;;;;;;;;;0.00;0.00;;;;;2.08;74.18;99522.72;5054943;28;45366;-75
2022/04/01 04:59:20;;;;;;;;;1.00;0.00;;;;;2.10;73.99;99528.81;5036943;28;45530;-75
2022/04/01 05:01:49;;;;;;;;;0.00;0.00;;;;;2.08;74.10;99529.66;5055647;28;45370;-74
2022/04/01 05:04:25;;;;;;;;;0.00;0.00;;;;;2.08;73.43;99525.34;5037610;28;45364;-75
2022/04/01 05:07:15;;;;;;;;;0.00;0.00;;;;;2.08;73.22;99520.13;5055046;28;45513;-75
2022/04/01 05:09:56;;;;;;;;;0.00;0.00;;;;;2.09;73.75;99536.63;5054664;28;45427;-74
2022/04/01 05:12:44;;;;;;;;;1.00;0.00;;;;;2.06;72.89;99534.03;5054081;28;45498;-75
2022/04/01 05:15:11;;;;;;;;;0.00;0.00;;;;;2.06;72.43;99534.88;5056508;28;45443;-75
2022/04/01 05:17:42;;;;;;;;;0.00;0.00;;;;;2.10;72.68;99538.38;5055743;28;46133;-75
2022/04/01 05:20:16;;;;;;;;;0.50;0.50;;;;;2.09;71.83;99542.69;5054888;28;45454;-76
2022/04/01 05:23:06;;;;;;;;;1.00;0.00;;;;;2.08;71.47;99542.69;5053751;28;45500;-75
2022/04/01 05:25:40;;;;;;;;;1.00;1.00;;;;;2.13;71.38;99552.25;5054229;28;45562;-75
2022/04/01 05:28:16;;;;;;;;;0.00;0.00;;;;;2.15;72.20;99562.69;5053903;28;46003;-75
2022/04/01 05:30:43;;;;;;;;;0.00;0.00;;;;;2.17;72.63;99557.47;5053642;28;45447;-73
2022/04/01 05:33:25;;;;;;;;;0.00;0.00;;;;;2.19;73.03;99555.75;5054651;28;45410;-74
2022/04/01 05:35:53;;;;;;;;;0.00;0.00;;;;;2.19;72.56;99561.81;5055138;28;45438;-74
2022/04/01 05:38:22;;;;;;;;;0.00;0.00;;;;;2.13;73.08;99559.22;5055828;28;46442;-74
2022/04/01 05:40:50;;;;;;;;;0.00;0.00;;;;;2.11;73.08;99560.94;5055481;28;45525;-75
2022/04/01 05:43:16;;;;;;;;;0.00;0.00;;;;;2.13;72.76;99554.88;5036874;28;45472;-79
2022/04/01 05:45:43;;;;;;;;;0.00;0.00;;;;;2.15;71.92;99565.28;5035347;28;45411;-81
2022/04/01 05:48:12;;;;;;;;;1.00;1.00;;;;;2.16;72.54;99558.31;5035377;28;47209;-80
2022/04/01 05:50:40;;;;;;;;;0.50;0.00;;;;;2.18;72.33;99575.72;5035195;28;45349;-80
2022/04/01 05:53:07;;;;;;;;;0.00;0.00;;;;;2.16;72.62;99567.03;5020279;28;45428;-80
2022/04/01 05:55:33;;;;;;;;;0.00;0.00;;;;;2.20;72.39;99570.50;5034773;28;45663;-80
2022/04/01 05:58:03;;;;;;;;;0.00;0.00;;;;;2.19;72.29;99574.84;5037524;28;47521;-80
2022/04/01 06:00:36;;;;;;;;;0.00;0.00;;;;;2.15;72.12;99575.72;5059844;28;45379;-79
2022/04/01 06:03:38;;;;;;;;;1.00;1.00;;;;;2.18;72.78;99573.09;5060280;28;45577;-79
2022/04/01 06:06:12;;;;;;;;;3.00;1.00;;;;;2.15;72.75;99580.09;5041283;28;45325;-80
2022/04/01 06:08:37;;;;;;;;;0.00;0.00;;;;;2.13;73.48;99585.28;5049883;28;45304;-80
2022/04/01 06:11:28;;;;;;;;;1.00;1.00;;;;;2.06;73.20;99583.56;5058279;28;45508;-79
2022/04/01 06:14:07;;;;;;;;;0.50;0.50;;;;;2.11;74.29;99597.44;5061634;28;45591;-80
2022/04/01 06:16:52;;;;;;;;;0.00;0.00;;;;;2.16;73.61;99600.94;5079234;27;45485;-80
2022/04/01 06:19:29;;;;;;;;;0.00;0.00;;;;;2.15;73.78;99593.13;5070760;28;46370;-80
2022/04/01 06:22:08;;;;;;;;;0.25;0.00;;;;;2.08;73.76;99613.97;5057832;28;45486;-79
2022/04/01 06:24:49;;;;;;;;;3.00;0.75;;;;;2.06;74.45;99622.66;5057289;28;45485;-80
2022/04/01 06:27:28;;;;;;;;;0.00;0.00;;;;;2.02;75.49;99624.41;5057682;28;45411;-78
2022/04/01 06:30:03;;;;;;;;;2.00;2.00;;;;;1.98;74.92;99616.59;5059444;28;45478;-81
2022/04/01 06:32:37;;;;;;;;;0.00;0.00;;;;;1.97;75.34;99627.88;5060385;28;45399;-80
2022/04/01 06:35:20;;;;;;;;;0.00;0.00;;;;;1.90;75.57;99630.50;5061117;28;45459;-80
2022/04/01 06:37:58;;;;;;;;;0.00;0.00;;;;;1.85;75.76;99626.13;5063255;28;45406;-79
2022/04/01 06:40:29;;;;;;;;;1.50;1.00;;;;;1.86;76.51;99633.94;5058899;28;46424;-81
2022/04/01 06:42:56;;;;;;;;;3.00;0.00;;;;;1.84;76.04;99625.28;5058452;28;45423;-81
2022/04/01 06:45:21;;;;;;;;;1.00;1.00;;;;;1.78;77.30;99618.31;5059676;28;45540;-81
2022/04/01 06:47:47;;;;;;;;;4.00;2.00;;;;;1.85;76.53;99637.41;5060042;28;45473;-78
2022/04/01 06:50:14;;;;;;;;;0.00;0.00;;;;;1.79;76.39;99647.84;5060716;28;45433;-80
2022/04/01 06:52:40;;;;;;;;;0.00;0.00;;;;;1.71;76.66;99628.75;5050809;28;45447;-76
2022/04/01 06:55:08;;;;;;;;;2.50;2.50;;;;;1.77;76.59;99649.59;5056248;28;45387;-80
2022/04/01 06:57:33;;;;;;;;;3.00;3.00;;;;;1.72;77.12;99639.16;5055372;28;45488;-79
2022/04/01 07:00:00;;;;;;;;;3.00;1.00;;;;;1.70;77.13;99650.44;5058072;28;46782;-80
2022/04/01 07:02:26;;;;;;;;;1.00;1.00;;;;;1.66;77.93;99646.13;5059092;28;45507;-80
2022/04/01 07:04:51;;;;;;;;;0.25;0.25;;;;;1.69;77.74;99652.19;5068697;27;45481;-76
2022/04/01 07:07:18;;;;;;;;;3.25;3.25;;;;;1.72;77.62;99665.22;5079049;28;45489;-78
2022/04/01 07:09:43;;;;;;;;;1.00;1.00;;;;;1.72;78.56;99657.41;5077720;27;46283;-73
2022/04/01 07:12:09;;;;;;;;;1.00;1.00;;;;;1.70;78.23;99658.25;5065738;27;45409;-80
2022/04/01 07:14:35;;;;;;;;;2.50;1.00;;;;;1.65;77.91;99653.03;5056865;28;45357;-75
2022/04/01 07:17:01;;;;;;;;;3.25;3.00;;;;;1.67;78.41;99656.53;5056417;28;45485;-74
2022/04/01 07:19:26;;;;;;;;;3.00;3.00;;;;;1.73;78.32;99669.56;5056994;28;45437;-80
2022/04/01 07:21:52;;;;;;;;;5.25;3.00;;;;;1.72;77.94;99667.81;5056798;28;45490;-79
2022/04/01 07:24:18;;;;;;;;;4.50;4.50;;;;;1.74;77.91;99660.00;5057442;28;45314;-79
2022/04/01 07:26:44;;;;;;;;;1.00;1.00;;;;;1.79;77.56;99668.69;5059344;28;45364;-81
2022/04/01 07:29:11;;;;;;;;;2.50;2.50;;;;;1.80;78.69;99669.56;5061192;28;45550;-80
2022/04/01 07:34:42;;;;;;;;;3.00;3.00;;;;;1.78;77.96;99677.41;5049135;28;45408;-80
2022/04/01 07:37:10;;;;;;;;;4.00;4.00;;;;;1.75;77.47;99678.25;5057690;28;45469;-79
2022/04/01 07:39:36;;;;;;;;;4.50;4.00;;;;;1.80;78.56;99680.00;5059325;28;46205;-79
2022/04/01 07:42:02;;;;;;;;;3.25;3.25;;;;;1.82;77.96;99683.47;5052094;28;45561;-79
2022/04/01 07:44:29;;;;;;;;;5.25;3.25;;;;;1.83;78.03;99680.00;5055847;28;45323;-79
2022/04/01 07:46:55;;;;;;;;;4.00;3.00;;;;;1.83;77.51;99674.78;5055327;28;45649;-80
2022/04/01 07:49:20;;;;;;;;;6.25;4.00;;;;;1.87;77.66;99686.97;5056369;28;46132;-78
2022/04/01 07:51:46;;;;;;;;;4.50;4.00;;;;;1.88;78.15;99684.38;5058408;28;45444;-79
2022/04/01 07:54:12;;;;;;;;;7.00;5.00;;;;;1.88;78.26;99699.13;5059088;28;45621;-79
2022/04/01 07:56:40;;;;;;;;;3.50;3.50;;;;;1.81;77.45;99685.22;5057456;28;45334;-78
2022/04/01 07:59:06;;;;;;;;;5.50;2.50;;;;;1.89;77.44;99701.72;5056646;28;45514;-80
2022/04/01 08:01:32;;;;;;;;;1.00;1.00;;;;;1.92;77.87;99701.72;5066172;28;45557;-80
2022/04/01 08:03:57;;;;;;;;;4.00;1.50;;;;;1.97;77.41;99714.75;5056583;28;45505;-80
2022/04/01 08:06:24;;;;;;;;;3.25;0.50;;;;;1.93;77.10;99710.44;5056644;28;45261;-79
2022/04/01 08:08:49;;;;;;;;;3.00;3.00;;;;;1.86;77.15;99712.13;5042313;28;46013;-80
2022/04/01 08:11:14;;;;;;;;;3.00;1.00;;;;;1.89;76.81;99712.16;5063596;28;45428;-79
2022/04/01 08:13:40;;;;;;;;;6.75;6.50;;;;;1.90;77.50;99707.81;5066336;28;49041;-79
2022/04/01 08:16:05;;;;;;;;;3.00;3.00;;;;;1.87;77.32;99729.53;5069424;28;45280;-80
2022/04/01 08:18:31;;;;;;;;;3.00;3.00;;;;;1.88;76.66;99720.84;5062331;28;46358;-80
2022/04/01 08:20:56;;;;;;;;;3.50;3.00;;;;;1.88;76.02;99733.88;5059214;28;45403;-79
2022/04/01 08:23:22;;;;;;;;;3.25;1.00;;;;;1.86;76.50;99725.16;5063307;28;45458;-79
2022/04/01 08:25:47;;;;;;;;;4.25;3.00;;;;;1.90;76.32;99734.75;5077547;28;45513;-80
2022/04/01 08:28:13;;;;;;;;;4.00;3.00;;;;;1.93;76.68;99742.56;5076679;27;45882;-79
2022/04/01 08:30:40;;;;;;;;;2.00;2.00;;;;;1.90;75.81;99750.38;5076786;28;45406;-80
2022/04/01 08:33:06;;;;;;;;;4.00;0.75;;;;;1.86;76.12;99746.03;5071012;27;45366;-80
2022/04/01 08:35:33;;;;;;;;;4.50;3.00;;;;;1.84;75.43;99744.28;5056935;28;45510;-79
2022/04/01 08:37:59;;;;;;;;;3.25;3.25;;;;;1.86;76.03;99751.22;5037711;28;46377;-80
2022/04/01 08:40:25;;;;;;;;;2.50;1.00;;;;;1.77;74.92;99744.25;5042769;28;45382;-79
2022/04/01 08:42:50;;;;;;;;;4.50;2.50;;;;;1.77;75.44;99764.25;5058807;28;45609;-79
2022/04/01 08:45:18;;;;;;;;;3.00;3.00;;;;;1.76;75.73;99778.13;5059952;28;45375;-79
2022/04/01 08:47:44;;;;;;;;;2.00;2.00;;;;;1.75;75.79;99786.84;5056107;28;45469;-80
2022/04/01 08:50:10;;;;;;;;;4.00;4.00;;;;;1.69;76.21;99781.59;5056314;28;45375;-79
2022/04/01 08:52:36;;;;;;;;;6.00;6.00;;;;;1.72;76.65;99786.81;5055043;28;45451;-79
2022/04/01 08:55:08;;;;;;;;;6.00;6.00;;;;;1.71;76.69;99800.72;5055708;28;45328;-80
2022/04/01 08:57:37;;;;;;;;;9.00;6.00;;;;;1.73;76.86;99791.16;5054927;28;45413;-79
2022/04/01 09:00:30;;;;;;;;;9.25;7.00;;;;;1.74;75.99;99811.13;5037530;28;45286;-78
2022/04/01 09:03:01;;;;;;;;;7.50;6.00;;;;;1.73;76.15;99802.47;5048899;28;45648;-79
2022/04/01 09:05:29;;;;;;;;;6.25;6.00;;;;;1.72;75.98;99807.66;5077056;27;45469;-80
2022/04/01 09:08:23;;;;;;;;;5.50;5.50;;;;;1.75;75.77;99805.94;5069047;28;45394;-79
2022/04/01 09:11:01;;;;;;;;;6.00;6.00;;;;;1.76;75.09;99812.00;5046179;28;45390;-79
2022/04/01 09:13:33;;;;;;;;;6.00;6.00;;;;;1.74;75.32;99803.31;5056196;28;45579;-80
2022/04/01 09:16:00;;;;;;;;;9.00;9.00;;;;;1.86;75.67;99826.81;5052056;28;45831;-80
2022/04/01 09:18:37;;;;;;;;;8.50;5.00;;;;;1.76;75.23;99819.81;5055972;28;46021;-80
2022/04/01 09:21:04;;;;;;;;;6.00;6.00;;;;;1.87;74.57;99818.16;5062670;28;45581;-79
2022/04/01 09:23:30;;;;;;;;;5.00;5.00;;;;;1.87;74.75;99839.00;5064370;27;45533;-80
2022/04/01 09:25:55;;;;;;;;;7.50;4.00;;;;;1.85;74.47;99832.88;5055491;28;45431;-79
2022/04/01 09:28:37;;;;;;;;;13.50;9.50;;;;;1.94;74.58;99832.06;5056144;28;45383;-79
2022/04/01 09:31:14;;;;;;;;;9.00;6.75;;;;;1.98;74.83;99832.97;5041303;28;45519;-79
2022/04/01 09:34:01;;;;;;;;;9.00;6.00;;;;;1.90;74.63;99846.81;5057575;28;45345;-79
2022/04/01 09:36:37;;;;;;;;;9.00;9.00;;;;;1.90;73.97;99852.03;4978774;28;45645;-78
2022/04/01 09:39:08;;;;;;;;;7.50;7.50;;;;;1.88;73.94;99853.78;4975747;28;45588;-80
2022/04/01 09:41:37;;;;;;;;;10.75;7.00;;;;;1.88;73.20;99853.78;4976499;28;45535;-79
2022/04/01 09:44:09;;;;;;;;;4.00;4.00;;;;;1.90;74.09;99852.03;4972267;28;45429;-77
2022/04/01 09:46:40;;;;;;;;;9.50;9.50;;;;;1.92;73.91;99858.13;4973170;28;45723;-75
2022/04/01 09:49:06;;;;;;;;;8.00;6.00;;;;;1.91;73.22;99851.19;4972334;28;46108;-74
2022/04/01 09:51:33;;;;;;;;;8.00;7.00;;;;;1.93;73.10;99870.28;4982770;28;45468;-74
2022/04/01 09:54:03;;;;;;;;;12.75;12.75;;;;;1.89;73.76;99850.28;4973309;28;45600;-75
2022/04/01 09:56:43;;;;;;;;;6.00;5.00;;;;;2.03;73.14;99865.13;4955363;28;45627;-75
2022/04/01 09:59:11;;;;;;;;;7.00;7.00;;;;;2.02;73.53;99868.56;4973275;28;45996;-75
2022/04/01 10:01:39;;;;;;;;;7.50;7.00;;;;;2.04;73.41;99872.06;4972961;28;45488;-75
2022/04/01 10:04:05;;;;;;;;;6.00;6.00;;;;;2.08;73.17;99876.41;4960064;28;45522;-76
2022/04/01 10:06:32;;;;;;;;;9.00;9.00;;;;;2.12;72.97;99880.78;4973156;28;45505;-74
2022/04/01 10:09:04;;;;;;;;;6.75;2.00;;;;;2.13;73.32;99887.75;4982068;28;46825;-76
2022/04/01 10:11:32;;;;;;;;;12.75;9.25;;;;;2.16;73.10;99885.16;4965792;28;45579;-75
2022/04/01 10:14:06;;;;;;;;;12.00;11.25;;;;;2.16;72.86;99886.88;5030246;28;45544;-76
2022/04/01 10:16:34;;;;;;;;;10.50;10.50;;;;;2.20;72.93;99884.31;5050050;28;45572;-76
2022/04/01 10:19:04;;;;;;;;;11.00;10.75;;;;;2.17;72.43;99868.66;5038771;28;46182;-75
2022/04/01 10:21:30;;;;;;;;;12.00;9.25;;;;;2.25;73.74;99887.78;5056431;28;45379;-75
2022/04/01 10:24:06;;;;;;;;;9.75;9.00;;;;;2.33;72.84;99894.78;5051115;28;45466;-76
2022/04/01 10:26:33;;;;;;;;;14.00;11.00;;;;;2.38;72.84;99899.09;5041635;28;45337;-75
2022/04/01 10:29:00;;;;;;;;;9.00;6.75;;;;;2.43;72.99;99912.16;5056632;28;46016;-76
2022/04/01 10:31:25;;;;;;;;;3.50;3.50;;;;;2.29;73.52;99880.84;5036909;28;45371;-77
2022/04/01 10:33:51;;;;;;;;;11.00;11.00;;;;;2.37;72.60;99899.09;5055117;28;45329;-79
2022/04/01 10:36:26;;;;;;;;;7.00;7.00;;;;;2.44;72.56;99909.56;5055482;28;45541;-79
2022/04/01 10:39:10;;;;;;;;;9.00;9.00;;;;;2.50;72.85;99908.72;5053037;28;45647;-79
2022/04/01 10:41:35;;;;;;;;;5.00;1.50;;;;;2.52;72.42;99904.38;5056527;28;45395;-78
2022/04/01 10:44:03;;;;;;;;;14.50;12.25;;;;;2.53;72.33;99903.50;5055454;28;45431;-79
2022/04/01 10:46:28;;;;;;;;;15.25;13.00;;;;;2.57;71.01;99925.28;5055562;28;45536;-79
2022/04/01 10:52:12;;;;;;;;;6.00;4.00;;;;;2.65;70.61;99919.19;5057528;28;45493;-78
2022/04/01 10:54:43;;;;;;;;;11.50;11.50;;;;;2.66;70.58;99926.16;5061549;28;45449;-79
2022/04/01 10:57:32;;;;;;;;;12.50;12.50;;;;;2.65;71.02;99918.31;5058527;28;44817;-78
2022/04/01 11:00:00;;;;;;;;;10.00;8.50;;;;;2.64;71.27;99930.50;5062299;28;46047;-78
2022/04/01 11:02:26;;;;;;;;;9.25;9.25;;;;;2.64;70.52;99935.72;5076355;27;45469;-78
2022/04/01 11:04:52;;;;;;;;;8.00;7.00;;;;;2.76;70.71;99939.22;5078746;27;45380;-79
2022/04/01 11:07:23;;;;;;;;;10.75;9.50;;;;;2.78;71.25;99929.63;5077806;28;45483;-79
2022/04/01 11:09:54;;;;;;;;;9.75;9.50;;;;;2.75;70.41;99940.06;5069967;27;46057;-75
2022/04/01 11:12:41;;;;;;;;;7.00;7.00;;;;;2.73;70.77;99944.44;5055949;28;45324;-75
2022/04/01 11:15:12;;;;;;;;;12.00;12.00;;;;;2.68;70.81;99949.63;5057234;28;45538;-75
2022/04/01 11:17:37;;;;;;;;;13.25;9.75;;;;;2.67;70.79;99943.56;5039243;28;45410;-73
2022/04/01 11:20:05;;;;;;;;;7.00;6.50;;;;;2.65;71.34;99949.63;5058776;28;45360;-75
2022/04/01 11:22:36;;;;;;;;;6.75;6.75;;;;;2.70;70.77;99947.03;5055362;28;45383;-75
2022/04/01 11:25:03;;;;;;;;;10.00;10.00;;;;;2.72;71.35;99954.00;5056953;28;45549;-76
2022/04/01 11:27:28;;;;;;;;;6.25;4.00;;;;;2.69;69.83;99955.72;5056270;28;45545;-75
2022/04/01 11:30:06;;;;;;;;;10.50;8.00;;;;;2.63;70.63;99957.47;5038205;28;46535;-75
2022/04/01 11:32:34;;;;;;;;;9.00;6.00;;;;;2.60;71.17;99962.66;5055214;27;45478;-75
2022/04/01 11:35:00;;;;;;;;;7.50;7.50;;;;;2.61;70.47;99959.19;5057835;28;45544;-74
2022/04/01 11:37:26;;;;;;;;;10.00;10.00;;;;;2.64;70.70;99967.03;5055875;28;45593;-76
2022/04/01 11:39:51;;;;;;;;;11.25;9.00;;;;;2.65;70.94;99962.69;5055487;28;46051;-75
2022/04/01 11:43:20;;;;;;;;;10.25;8.00;;;;;2.58;69.70;99972.25;5055824;28;45373;-76
2022/04/01 11:45:29;;;;;;;;;10.50;8.50;;;;;2.59;70.48;99975.72;5052847;27;45387;-75
2022/04/01 11:47:54;;;;;;;;;11.50;6.75;;;;;2.52;70.19;99969.63;5056495;28;45315;-75
2022/04/01 11:50:23;;;;;;;;;7.50;7.50;;;;;2.54;70.82;99982.66;5038006;28;45370;-75
2022/04/01 11:52:52;;;;;;;;;9.00;7.25;;;;;2.49;70.97;99980.03;5059315;28;45456;-76
2022/04/01 11:55:26;;;;;;;;;12.75;9.25;;;;;2.51;70.75;99980.91;5056259;28;45431;-75
2022/04/01 11:57:54;;;;;;;;;11.75;8.50;;;;;2.53;71.57;99986.13;5055020;28;45391;-75
2022/04/01 12:00:22;;;;;;;;;17.00;11.00;;;;;2.43;71.07;99964.34;5055780;28;45366;-75
2022/04/01 12:02:53;;;;;;;;;12.25;10.00;;;;;2.46;69.99;99987.81;5055501;28;45450;-75
2022/04/01 12:05:19;;;;;;;;;11.75;6.00;;;;;2.45;70.21;99993.94;5055435;28;45383;-75